createdAt,value
2023-03-16T00:00:01.031Z,-2.3
2023-03-16T00:01:01.072Z,-2.4
2023-03-16T00:03:01.054Z,-2.5
2023-03-16T00:05:00.972Z,-2.5
2023-03-16T00:07:00.978Z,-2.6
2023-03-16T00:09:00.951Z,-2.6
2023-03-16T00:10:00.946Z,-2.5
2023-03-16T00:11:00.946Z,-2.4
2023-03-16T00:14:00.955Z,-2.5
2023-03-16T00:16:01.054Z,-2.6
2023-03-16T00:17:00.964Z,-2.7
2023-03-16T00:19:00.985Z,-2.5
2023-03-16T00:20:00.989Z,-2.6
2023-03-16T00:22:00.942Z,-2.6
2023-03-16T00:25:00.988Z,-2.7
2023-03-16T00:28:01.205Z,-2.7
2023-03-16T00:30:01.050Z,-2.7
2023-03-16T00:32:01.186Z,-2.8
2023-03-16T00:38:00.975Z,-2.6
2023-03-16T00:41:00.965Z,-2.7
2023-03-16T00:43:00.975Z,-2.8
2023-03-16T00:45:00.962Z,-2.7
2023-03-16T00:47:00.922Z,-2.8
2023-03-16T00:51:00.959Z,-2.6
2023-03-16T00:54:00.959Z,-2.7
2023-03-16T00:56:00.961Z,-2.6
2023-03-16T00:57:00.983Z,-2.7
2023-03-16T00:59:00.944Z,-2.6
2023-03-16T01:00:00.951Z,-2.9
2023-03-16T01:02:00.980Z,-2.8
2023-03-16T01:03:01.008Z,-2.9
2023-03-16T01:05:00.933Z,-2.6
2023-03-16T01:06:00.974Z,-2.8
2023-03-16T01:10:00.963Z,-2.9
2023-03-16T01:11:01.008Z,-2.8
2023-03-16T01:13:00.964Z,-2.8
2023-03-16T01:15:01.033Z,-2.7
2023-03-16T01:17:01.050Z,-2.9
2023-03-16T01:18:00.974Z,-2.8
2023-03-16T01:21:00.995Z,-2.9
2023-03-16T01:22:01.008Z,-2.8
2023-03-16T01:24:00.961Z,-2.7
2023-03-16T01:25:00.977Z,-2.8
2023-03-16T01:28:00.990Z,-2.9
2023-03-16T01:34:00.972Z,-2.9
2023-03-16T01:38:00.972Z,-2.8
2023-03-16T01:40:01.014Z,-2.9
2023-03-16T01:43:00.955Z,-2.9
2023-03-16T01:44:00.997Z,-3
2023-03-16T01:45:01.072Z,-2.8
2023-03-16T01:51:00.977Z,-2.8
2023-03-16T01:53:01.005Z,-2.9
2023-03-16T01:54:00.982Z,-2.8
2023-03-16T01:57:00.980Z,-2.8
2023-03-16T01:59:00.949Z,-3
2023-03-16T02:00:01.009Z,-2.8
2023-03-16T02:04:01.015Z,-2.9
2023-03-16T02:05:00.996Z,-3
2023-03-16T02:07:01.009Z,-3
2023-03-16T02:08:00.991Z,-2.9
2023-03-16T02:12:00.972Z,-2.9
2023-03-16T02:15:00.960Z,-2.8
2023-03-16T02:17:00.942Z,-3
2023-03-16T02:19:00.932Z,-2.9
2023-03-16T02:21:00.942Z,-3
2023-03-16T02:23:00.937Z,-2.8
2023-03-16T02:24:00.945Z,-2.9
2023-03-16T02:26:01.016Z,-2.8
2023-03-16T02:31:01.044Z,-2.8
2023-03-16T02:34:00.954Z,-2.8
2023-03-16T02:35:00.980Z,-2.9
2023-03-16T02:37:00.928Z,-3
2023-03-16T02:38:01.035Z,-2.9
2023-03-16T02:39:00.991Z,-2.8
2023-03-16T02:41:00.972Z,-2.9
2023-03-16T02:43:00.965Z,-2.9
2023-03-16T02:44:00.950Z,-2.7
2023-03-16T02:45:01.049Z,-2.8
2023-03-16T02:46:01.066Z,-2.7
2023-03-16T02:47:01.028Z,-2.8
2023-03-16T02:49:00.976Z,-2.8
2023-03-16T02:54:00.968Z,-2.7
2023-03-16T02:55:00.964Z,-2.9
2023-03-16T02:56:00.962Z,-2.8
2023-03-16T02:58:00.962Z,-2.7
2023-03-16T03:00:00.972Z,-2.8
2023-03-16T03:02:00.983Z,-2.8
2023-03-16T03:05:00.974Z,-2.8
2023-03-16T03:09:00.937Z,-2.9
2023-03-16T03:10:00.986Z,-2.8
2023-03-16T03:13:00.945Z,-3
2023-03-16T03:14:00.967Z,-2.9
2023-03-16T03:17:00.989Z,-3
2023-03-16T03:19:00.958Z,-2.8
2023-03-16T03:24:00.975Z,-2.9
2023-03-16T03:26:00.956Z,-3
2023-03-16T03:27:00.985Z,-2.9
2023-03-16T03:30:01.028Z,-2.8
2023-03-16T03:33:00.982Z,-3
2023-03-16T03:34:00.935Z,-2.9
2023-03-16T03:39:00.942Z,-3
2023-03-16T03:41:01.024Z,-3.1
2023-03-16T03:42:00.955Z,-3
2023-03-16T03:43:00.956Z,-2.9
2023-03-16T03:45:00.993Z,-3.1
2023-03-16T03:47:00.965Z,-3.1
2023-03-16T03:48:00.966Z,-3.2
2023-03-16T03:50:00.944Z,-3.1
2023-03-16T03:51:00.956Z,-3.2
2023-03-16T03:52:01.018Z,-3.1
2023-03-16T03:54:00.995Z,-3
2023-03-16T03:57:00.945Z,-3.2
2023-03-16T03:58:00.996Z,-3.1
2023-03-16T04:00:01.037Z,-3.1
2023-03-16T04:02:01.165Z,-3.2
2023-03-16T04:04:00.932Z,-3.1
2023-03-16T04:09:00.955Z,-3
2023-03-16T04:10:00.944Z,-3.1
2023-03-16T04:13:00.970Z,-3
2023-03-16T04:15:00.941Z,-3.1
2023-03-16T04:17:00.937Z,-3
2023-03-16T04:18:00.953Z,-3.1
2023-03-16T04:20:00.941Z,-3.1
2023-03-16T04:27:00.963Z,-3.2
2023-03-16T04:28:00.946Z,-3.1
2023-03-16T04:30:00.998Z,-3.1
2023-03-16T04:32:00.982Z,-3.1
2023-03-16T04:34:00.960Z,-3
2023-03-16T04:36:01.000Z,-3.1
2023-03-16T04:47:00.945Z,-3
2023-03-16T04:49:00.990Z,-3
2023-03-16T04:51:00.922Z,-3.1
2023-03-16T04:53:00.958Z,-3
2023-03-16T04:54:00.921Z,-3.1
2023-03-16T04:56:00.984Z,-3
2023-03-16T04:57:00.938Z,-3.1
2023-03-16T05:00:01.158Z,-3.2
2023-03-16T05:05:00.925Z,-3.2
2023-03-16T05:06:01.003Z,-3.1
2023-03-16T05:08:01.089Z,-3.2
2023-03-16T05:13:00.949Z,-3.3
2023-03-16T05:14:00.925Z,-3.1
2023-03-16T05:16:00.989Z,-3
2023-03-16T05:19:00.950Z,-3.1
2023-03-16T05:20:00.973Z,-3.2
2023-03-16T05:24:00.981Z,-3
2023-03-16T05:25:00.974Z,-3.2
2023-03-16T05:26:01.000Z,-3.1
2023-03-16T05:28:00.944Z,-3.2
2023-03-16T05:31:00.977Z,-3.2
2023-03-16T05:35:00.940Z,-3.1
2023-03-16T05:36:00.968Z,-3.2
2023-03-16T05:38:00.980Z,-3.1
2023-03-16T05:40:01.020Z,-3.1
2023-03-16T05:44:01.070Z,-3
2023-03-16T05:46:00.962Z,-3.1
2023-03-16T05:48:01.046Z,-3
2023-03-16T05:51:01.006Z,-3
2023-03-16T05:54:01.036Z,-2.9
2023-03-16T05:56:01.055Z,-2.9
2023-03-16T05:58:01.036Z,-2.8
2023-03-16T05:59:01.019Z,-2.9
2023-03-16T06:02:01.109Z,-3
2023-03-16T06:04:01.132Z,-2.7
2023-03-16T06:05:01.208Z,-2.9
2023-03-16T06:06:01.164Z,-2.7
2023-03-16T06:12:01.087Z,-2.4
2023-03-16T06:14:01.380Z,-1.9
2023-03-16T06:16:01.129Z,-1
2023-03-16T06:19:01.063Z,0
2023-03-16T06:20:01.075Z,0.3
2023-03-16T06:24:01.325Z,1.1
2023-03-16T06:26:01.294Z,1.5
2023-03-16T06:27:01.275Z,1.7
2023-03-16T06:28:01.359Z,1.8
2023-03-16T06:29:01.356Z,2.3
2023-03-16T06:31:01.040Z,2.9
2023-03-16T06:32:01.086Z,3.4
2023-03-16T06:34:01.082Z,3.9
2023-03-16T06:35:01.004Z,4.2
2023-03-16T06:36:01.069Z,4.5
2023-03-16T06:38:01.101Z,4.5
2023-03-16T06:40:01.010Z,5.1
2023-03-16T06:42:01.041Z,5.4
2023-03-16T06:43:01.014Z,5.6
2023-03-16T06:44:01.125Z,5.8
2023-03-16T06:45:01.150Z,5.9
2023-03-16T06:48:01.104Z,6.4
2023-03-16T06:51:01.074Z,6.9
2023-03-16T06:54:01.074Z,7.1
2023-03-16T06:55:01.075Z,7.2
2023-03-16T06:59:01.345Z,7.3
2023-03-16T07:01:01.085Z,7.1
2023-03-16T07:02:01.200Z,6.8
2023-03-16T07:04:00.974Z,6.3
2023-03-16T07:08:00.952Z,6.1
2023-03-16T07:10:00.984Z,6.2
2023-03-16T07:12:00.957Z,6.4
2023-03-16T07:14:00.960Z,6.3
2023-03-16T07:15:01.011Z,6.4
2023-03-16T07:16:00.981Z,6.3
2023-03-16T07:18:00.985Z,6.2
2023-03-16T07:20:00.980Z,6
2023-03-16T07:23:00.946Z,5.8
2023-03-16T07:24:00.934Z,5.7
2023-03-16T07:25:00.938Z,5.6
2023-03-16T07:27:00.933Z,5.5
2023-03-16T07:28:00.955Z,5.3
2023-03-16T07:29:00.945Z,5.2
2023-03-16T07:31:04.017Z,5
2023-03-16T07:33:01.023Z,4.8
2023-03-16T07:34:01.015Z,4.6
2023-03-16T07:37:00.949Z,4.4
2023-03-16T07:38:00.951Z,4.2
2023-03-16T07:39:00.941Z,4.1
2023-03-16T07:40:00.975Z,3.8
2023-03-16T07:41:01.004Z,3.7
2023-03-16T07:43:00.934Z,3.6
2023-03-16T07:44:00.971Z,3.4
2023-03-16T07:46:00.999Z,3.3
2023-03-16T07:47:00.937Z,3.2
2023-03-16T07:48:00.989Z,3.1
2023-03-16T07:50:00.978Z,3
2023-03-16T07:51:00.961Z,2.9
2023-03-16T07:55:00.981Z,2.8
2023-03-16T07:57:00.969Z,2.6
2023-03-16T07:58:00.997Z,2.7
2023-03-16T08:01:00.980Z,2.6
2023-03-16T08:09:01.051Z,2.7
2023-03-16T08:11:01.161Z,2.8
2023-03-16T08:12:01.110Z,2.7
2023-03-16T08:14:01.197Z,2.9
2023-03-16T08:16:01.271Z,2.8
2023-03-16T08:17:01.200Z,2.9
2023-03-16T08:19:01.295Z,3
2023-03-16T08:21:00.988Z,3
2023-03-16T08:25:00.966Z,3
2023-03-16T08:27:00.968Z,3.2
2023-03-16T08:28:00.981Z,3
2023-03-16T08:30:00.996Z,3.2
2023-03-16T08:39:06.821Z,3.4
2023-03-16T08:40:00.966Z,3.5
2023-03-16T08:42:00.949Z,3.4
2023-03-16T08:44:01.026Z,3.5
2023-03-16T08:46:01.008Z,3.6
2023-03-16T08:48:00.937Z,3.7
2023-03-16T08:50:00.945Z,3.8
2023-03-16T08:52:00.993Z,3.9
2023-03-16T08:53:00.971Z,3.8
2023-03-16T08:54:01.025Z,4
2023-03-16T08:56:01.012Z,4.1
2023-03-16T08:59:00.945Z,4.2
2023-03-16T09:00:00.955Z,4.3
2023-03-16T09:02:00.974Z,4.2
2023-03-16T09:04:00.968Z,4.4
2023-03-16T09:06:00.935Z,4.5
2023-03-16T09:07:08.631Z,4.4
2023-03-16T09:08:01.001Z,4.5
2023-03-16T09:10:00.951Z,4.6
2023-03-16T09:13:00.959Z,4.7
2023-03-16T09:16:00.986Z,4.8
2023-03-16T09:18:01.022Z,5
2023-03-16T09:21:00.937Z,4.9
2023-03-16T09:22:00.985Z,5
2023-03-16T09:24:00.956Z,5.1
2023-03-16T09:26:00.946Z,5.1
2023-03-16T09:27:00.998Z,5.2
2023-03-16T09:29:00.989Z,5.4
2023-03-16T09:30:01.175Z,5.3
2023-03-16T09:33:01.031Z,5.4
2023-03-16T09:34:00.971Z,5.3
2023-03-16T09:35:00.970Z,5.4
2023-03-16T09:37:00.956Z,5.3
2023-03-16T09:38:05.854Z,5.6
2023-03-16T09:40:06.726Z,5.5
2023-03-16T09:41:01.013Z,5.6
2023-03-16T09:43:00.930Z,5.6
2023-03-16T09:44:00.980Z,5.8
2023-03-16T09:47:00.989Z,6
2023-03-16T09:49:00.982Z,6.2
2023-03-16T09:51:01.049Z,6.4
2023-03-16T09:53:00.972Z,6.4
2023-03-16T09:55:00.935Z,6.5
2023-03-16T09:56:00.959Z,6.4
2023-03-16T09:59:00.925Z,6.7
2023-03-16T10:01:00.972Z,6.8
2023-03-16T10:03:00.957Z,7.1
2023-03-16T10:06:01.020Z,7.2
2023-03-16T10:08:01.037Z,7.1
2023-03-16T10:10:00.981Z,7.3
2023-03-16T10:14:00.943Z,7.5
2023-03-16T10:15:00.981Z,7.6
2023-03-16T10:16:00.959Z,7.5
2023-03-16T10:18:00.944Z,7.8
2023-03-16T10:19:01.018Z,7.6
2023-03-16T10:21:00.944Z,7.4
2023-03-16T10:22:00.989Z,7.5
2023-03-16T10:24:00.989Z,7.8
2023-03-16T10:25:01.034Z,7.6
2023-03-16T10:26:01.075Z,7.7
2023-03-16T10:27:01.040Z,7.9
2023-03-16T10:30:01.007Z,7.8
2023-03-16T10:32:00.974Z,7.9
2023-03-16T10:34:00.951Z,8
2023-03-16T10:38:00.995Z,8.2
2023-03-16T10:40:00.935Z,8.2
2023-03-16T10:43:00.953Z,8.3
2023-03-16T10:44:00.956Z,8.4
2023-03-16T10:48:00.939Z,8.5
2023-03-16T10:50:00.924Z,8.7
2023-03-16T10:51:00.951Z,8.8
2023-03-16T10:53:00.980Z,8.9
2023-03-16T10:54:00.997Z,8.7
2023-03-16T10:56:00.958Z,8.8
2023-03-16T10:59:00.914Z,8.7
2023-03-16T11:00:01.075Z,8.9
2023-03-16T11:03:00.977Z,8.8
2023-03-16T11:04:01.090Z,8.9
2023-03-16T11:06:01.082Z,8.7
2023-03-16T11:08:01.006Z,8.8
2023-03-16T11:11:00.941Z,9.1
2023-03-16T11:12:00.985Z,9
2023-03-16T11:15:00.999Z,9.3
2023-03-16T11:18:01.001Z,9.5
2023-03-16T11:21:00.953Z,9.6
2023-03-16T11:22:00.934Z,9.4
2023-03-16T11:23:00.942Z,9.5
2023-03-16T11:24:00.932Z,9.6
2023-03-16T11:26:00.975Z,9.6
2023-03-16T11:27:00.959Z,9.7
2023-03-16T11:28:00.991Z,9.6
2023-03-16T11:30:01.092Z,9.6
2023-03-16T11:34:00.956Z,9.5
2023-03-16T11:37:00.983Z,9.5
2023-03-16T11:38:00.987Z,9.6
2023-03-16T11:40:00.967Z,9.6
2023-03-16T11:41:01.010Z,9.5
2023-03-16T11:43:00.945Z,9.7
2023-03-16T11:45:01.044Z,9.6
2023-03-16T11:47:00.973Z,10
2023-03-16T11:49:00.984Z,10
2023-03-16T11:50:01.033Z,10.1
2023-03-16T11:52:00.955Z,10
2023-03-16T11:54:00.964Z,10.1
2023-03-16T11:56:00.973Z,10.2
2023-03-16T11:58:00.957Z,10.1
2023-03-16T11:59:01.043Z,9.9
2023-03-16T12:01:00.938Z,9.7
2023-03-16T12:03:00.964Z,9.6
2023-03-16T12:04:01.083Z,9.5
2023-03-16T12:06:05.609Z,9.6
2023-03-16T12:08:00.999Z,9.7
2023-03-16T12:10:00.978Z,9.7
2023-03-16T12:11:00.959Z,9.6
2023-03-16T12:12:00.968Z,9.7
2023-03-16T12:14:00.974Z,9.7
2023-03-16T12:15:01.090Z,9.8
2023-03-16T12:17:02.395Z,9.8
2023-03-16T12:18:00.941Z,9.6
2023-03-16T12:19:00.961Z,9.7
2023-03-16T12:21:00.988Z,9.5
2023-03-16T12:23:00.943Z,9.7
2023-03-16T12:24:00.939Z,9.6
2023-03-16T12:25:01.060Z,9.5
2023-03-16T12:28:00.965Z,9.1
2023-03-16T12:30:00.994Z,8.9
2023-03-16T12:33:01.014Z,8.8
2023-03-16T12:34:01.017Z,8.9
2023-03-16T12:36:01.100Z,8.9
2023-03-16T12:39:00.987Z,9.1
2023-03-16T12:41:01.014Z,9.2
2023-03-16T12:42:00.981Z,9.3
2023-03-16T12:46:01.036Z,9.3
2023-03-16T12:49:00.948Z,9.4
2023-03-16T12:51:00.948Z,9.5
2023-03-16T12:52:00.958Z,9.4
2023-03-16T12:53:00.969Z,9.6
2023-03-16T12:54:01.016Z,9.4
2023-03-16T12:56:00.989Z,9.4
2023-03-16T12:58:01.029Z,9.2
2023-03-16T13:02:00.991Z,9.3
2023-03-16T13:08:00.945Z,9.4
2023-03-16T13:13:00.964Z,9.5
2023-03-16T13:14:00.952Z,9.6
2023-03-16T13:15:01.071Z,9.5
2023-03-16T13:18:00.978Z,9.8
2023-03-16T13:20:00.980Z,9.7
2023-03-16T13:24:00.962Z,9.6
2023-03-16T13:25:00.979Z,9.8
2023-03-16T13:27:00.986Z,9.7
2023-03-16T13:29:01.013Z,9.5
2023-03-16T13:30:01.017Z,9.6
2023-03-16T13:33:00.954Z,9.6
2023-03-16T13:36:00.964Z,9.5
2023-03-16T13:37:01.012Z,9.4
2023-03-16T13:41:00.919Z,9.3
2023-03-16T13:42:01.069Z,9.6
2023-03-16T13:44:00.954Z,9.4
2023-03-16T13:45:01.044Z,9.6
2023-03-16T13:47:01.018Z,9.5
2023-03-16T13:49:00.948Z,9.1
2023-03-16T13:50:00.949Z,9.2
2023-03-16T13:51:00.967Z,9
2023-03-16T13:56:00.989Z,9.1
2023-03-16T13:58:01.007Z,9
2023-03-16T13:59:00.945Z,9.1
2023-03-16T14:00:01.012Z,9.2
2023-03-16T14:02:00.954Z,9
2023-03-16T14:07:00.920Z,9.1
2023-03-16T14:08:01.037Z,9.2
2023-03-16T14:10:00.951Z,8.9
2023-03-16T14:12:00.943Z,8.7
2023-03-16T14:14:00.970Z,8.6
2023-03-16T14:17:00.958Z,8.6
2023-03-16T14:20:00.964Z,8.8
2023-03-16T14:22:00.943Z,8.6
2023-03-16T14:23:00.946Z,8.5
2023-03-16T14:28:00.989Z,8.7
2023-03-16T14:29:00.979Z,8.5
2023-03-16T14:30:01.158Z,8.6
2023-03-16T14:33:00.981Z,8.5
2023-03-16T14:34:00.942Z,8.6
2023-03-16T14:35:01.000Z,8.7
2023-03-16T14:36:01.033Z,8.6
2023-03-16T14:38:00.941Z,8.5
2023-03-16T14:40:00.940Z,8.4
2023-03-16T14:42:00.995Z,8.3
2023-03-16T14:44:01.005Z,8.3
2023-03-16T14:46:00.988Z,8.4
2023-03-16T14:48:00.940Z,8.4
2023-03-16T14:49:01.054Z,8.3
2023-03-16T14:51:00.945Z,8.2
2023-03-16T14:53:00.913Z,8.3
2023-03-16T14:55:03.333Z,8.1
2023-03-16T14:56:00.966Z,8.2
2023-03-16T15:00:00.946Z,8.1
2023-03-16T15:02:01.040Z,8.1
2023-03-16T15:03:01.021Z,8.2
2023-03-16T15:05:00.936Z,8.1
2023-03-16T15:06:00.958Z,7.9
2023-03-16T15:07:01.003Z,8
2023-03-16T15:08:01.003Z,7.9
2023-03-16T15:11:01.001Z,7.8
2023-03-16T15:12:01.057Z,7.9
2023-03-16T15:13:01.046Z,7.7
2023-03-16T15:16:00.968Z,7.6
2023-03-16T15:17:01.018Z,7.7
2023-03-16T15:21:00.925Z,7.5
2023-03-16T15:22:01.102Z,7.6
2023-03-16T15:24:00.942Z,7.6
2023-03-16T15:25:00.971Z,7.5
2023-03-16T15:26:01.074Z,7.4
2023-03-16T15:29:01.023Z,7.5
2023-03-16T15:32:01.072Z,7.3
2023-03-16T15:33:01.197Z,7.5
2023-03-16T15:36:01.103Z,7.3
2023-03-16T15:38:01.063Z,7.3
2023-03-16T15:41:01.059Z,7.1
2023-03-16T15:44:01.128Z,7.1
2023-03-16T15:46:00.955Z,7.1
2023-03-16T15:48:00.994Z,7.1
2023-03-16T15:50:00.968Z,7
2023-03-16T15:55:00.992Z,6.9
2023-03-16T15:56:00.988Z,6.8
2023-03-16T15:58:00.974Z,6.7
2023-03-16T15:59:00.961Z,6.9
2023-03-16T16:00:01.037Z,6.8
2023-03-16T16:01:01.066Z,6.7
2023-03-16T16:02:01.003Z,6.9
2023-03-16T16:03:01.031Z,6.7
2023-03-16T16:06:00.966Z,6.6
2023-03-16T16:08:00.997Z,6.7
2023-03-16T16:10:01.001Z,6.5
2023-03-16T16:13:00.945Z,6.5
2023-03-16T16:14:00.963Z,6.4
2023-03-16T16:16:00.996Z,6.5
2023-03-16T16:22:00.995Z,6.2
2023-03-16T16:27:00.977Z,6.3
2023-03-16T16:29:00.941Z,6.2
2023-03-16T16:30:01.007Z,6.1
2023-03-16T16:33:01.043Z,6
2023-03-16T16:35:04.401Z,6
2023-03-16T16:38:00.981Z,6.1
2023-03-16T16:40:01.010Z,6
2023-03-16T16:41:00.987Z,5.9
2023-03-16T16:43:00.994Z,5.8
2023-03-16T16:45:00.965Z,5.8
2023-03-16T16:46:01.031Z,5.9
2023-03-16T16:48:00.999Z,5.7
2023-03-16T16:51:00.937Z,5.8
2023-03-16T16:52:00.945Z,5.7
2023-03-16T16:54:00.937Z,5.6
2023-03-16T17:03:00.990Z,5.5
2023-03-16T17:04:01.030Z,5.6
2023-03-16T17:06:00.959Z,5.6
2023-03-16T17:08:00.932Z,5.5
2023-03-16T17:09:01.012Z,5.4
2023-03-16T17:11:00.919Z,5.5
2023-03-16T17:12:01.249Z,5.4
2023-03-16T17:13:00.985Z,5.3
2023-03-16T17:14:00.923Z,5.4
2023-03-16T17:15:01.010Z,5.3
2023-03-16T17:19:00.934Z,5.4
2023-03-16T17:23:00.969Z,5.3
2023-03-16T17:24:01.022Z,5.2
2023-03-16T17:26:00.968Z,5.2
2023-03-16T17:27:00.953Z,5.3
2023-03-16T17:28:00.963Z,5.2
2023-03-16T17:30:01.015Z,5.1
2023-03-16T17:32:00.967Z,5.2
2023-03-16T17:33:01.008Z,5.1
2023-03-16T17:36:01.034Z,5
2023-03-16T17:37:00.953Z,5.1
2023-03-16T17:39:00.962Z,5
2023-03-16T17:43:00.932Z,5.1
2023-03-16T17:44:00.943Z,5
2023-03-16T17:45:01.060Z,5.1
2023-03-16T17:47:00.937Z,4.9
2023-03-16T17:48:00.943Z,5
2023-03-16T17:49:00.926Z,4.9
2023-03-16T17:50:01.022Z,5
2023-03-16T17:53:00.930Z,4.8
2023-03-16T17:54:00.946Z,4.9
2023-03-16T17:55:00.997Z,4.8
2023-03-16T17:57:00.930Z,4.8
2023-03-16T17:58:01.001Z,4.7
2023-03-16T18:00:01.087Z,4.8
2023-03-16T18:03:00.977Z,4.6
2023-03-16T18:05:00.932Z,4.7
2023-03-16T18:08:01.072Z,4.6
2023-03-16T18:10:00.957Z,4.6
2023-03-16T18:13:00.946Z,4.5
2023-03-16T18:14:00.979Z,4.6
2023-03-16T18:16:01.098Z,4.6
2023-03-16T18:18:00.962Z,4.6
2023-03-16T18:22:00.953Z,4.6
2023-03-16T18:24:00.975Z,4.4
2023-03-16T18:26:00.980Z,4.7
2023-03-16T18:31:00.947Z,4.4
2023-03-16T18:32:00.966Z,4.5
2023-03-16T18:34:01.017Z,4.4
2023-03-16T18:37:00.996Z,4.3
2023-03-16T18:40:01.018Z,4.2
2023-03-16T18:43:00.937Z,4.4
2023-03-16T18:44:01.010Z,4.3
2023-03-16T18:46:00.966Z,4.3
2023-03-16T18:47:01.104Z,4.1
2023-03-16T18:49:00.942Z,4.2
2023-03-16T18:52:00.967Z,4.1
2023-03-16T18:54:00.974Z,4.1
2023-03-16T18:56:00.943Z,4.2
2023-03-16T18:57:00.941Z,3.8
2023-03-16T18:59:00.926Z,4.1
2023-03-16T19:00:00.977Z,4
2023-03-16T19:02:00.984Z,3.8
2023-03-16T19:03:00.962Z,4
2023-03-16T19:05:02.241Z,3.9
2023-03-16T19:07:00.991Z,4
2023-03-16T19:08:01.058Z,3.9
2023-03-16T19:10:00.970Z,4
2023-03-16T19:11:00.972Z,3.9
2023-03-16T19:13:00.941Z,3.8
2023-03-16T19:14:00.985Z,4
2023-03-16T19:15:01.074Z,3.8
2023-03-16T19:19:00.931Z,3.9
2023-03-16T19:21:00.921Z,3.8
2023-03-16T19:22:00.968Z,3.9
2023-03-16T19:24:00.958Z,4.1
2023-03-16T19:25:00.990Z,4
2023-03-16T19:30:01.115Z,3.8
2023-03-16T19:32:01.056Z,3.8
2023-03-16T19:34:00.985Z,3.8
2023-03-16T19:36:01.022Z,3.9
2023-03-16T19:38:01.058Z,3.8
2023-03-16T19:40:00.984Z,3.9
2023-03-16T19:41:00.981Z,3.8
2023-03-16T19:43:00.962Z,4
2023-03-16T19:44:01.055Z,3.8
2023-03-16T19:46:01.044Z,3.9
2023-03-16T19:48:00.969Z,3.9
2023-03-16T19:53:00.970Z,4
2023-03-16T19:54:01.431Z,3.6
2023-03-16T19:57:00.954Z,3.8
2023-03-16T19:59:00.944Z,3.9
2023-03-16T20:00:01.007Z,3.8
2023-03-16T20:05:00.932Z,4
2023-03-16T20:06:00.954Z,3.8
2023-03-16T20:07:00.983Z,3.9
2023-03-16T20:08:00.994Z,3.8
2023-03-16T20:09:01.984Z,3.7
2023-03-16T20:10:01.044Z,3.8
2023-03-16T20:14:01.080Z,3.9
2023-03-16T20:17:01.048Z,3.7
2023-03-16T20:18:00.951Z,3.6
2023-03-16T20:21:00.955Z,3.8
2023-03-16T20:22:00.978Z,3.6
2023-03-16T20:23:00.981Z,3.5
2023-03-16T20:26:02.618Z,3.7
2023-03-16T20:27:01.058Z,3.6
2023-03-16T20:29:00.966Z,3.7
2023-03-16T20:32:00.947Z,3.6
2023-03-16T20:33:01.101Z,3.5
2023-03-16T20:36:01.017Z,3.7
2023-03-16T20:38:00.999Z,3.6
2023-03-16T20:42:00.999Z,3.7
2023-03-16T20:44:00.937Z,3.5
2023-03-16T20:45:00.948Z,3.6
2023-03-16T20:46:01.038Z,3.8
2023-03-16T20:47:00.966Z,3.6
2023-03-16T20:50:01.015Z,3.5
2023-03-16T20:52:01.022Z,3.5
2023-03-16T20:54:00.944Z,3.4
2023-03-16T20:55:00.942Z,3.6
2023-03-16T20:56:00.950Z,3.5
2023-03-16T20:57:00.978Z,3.6
2023-03-16T21:00:00.983Z,3.5
2023-03-16T21:02:00.990Z,3.7
2023-03-16T21:05:01.147Z,3.4
2023-03-16T21:06:01.020Z,3.6
2023-03-16T21:09:00.989Z,3.5
2023-03-16T21:10:00.993Z,3.4
2023-03-16T21:12:00.964Z,3.6
2023-03-16T21:13:00.982Z,3.5
2023-03-16T21:15:01.005Z,3.6
2023-03-16T21:16:01.071Z,3.5
2023-03-16T21:19:00.934Z,3.6
2023-03-16T21:20:01.048Z,3.5
2023-03-16T21:24:03.301Z,3.4
2023-03-16T21:26:00.967Z,3.3
2023-03-16T21:27:00.972Z,3.4
2023-03-16T21:29:00.996Z,3.4
2023-03-16T21:33:01.013Z,3.2
2023-03-16T21:35:00.977Z,3.3
2023-03-16T21:40:01.435Z,3.5
2023-03-16T21:41:01.002Z,3.3
2023-03-16T21:45:00.997Z,3.2
2023-03-16T21:46:01.046Z,3.4
2023-03-16T21:47:01.120Z,3.3
2023-03-16T21:51:00.957Z,3.3
2023-03-16T21:52:00.987Z,3.5
2023-03-16T21:56:01.040Z,3.4
2023-03-16T21:58:01.019Z,3.6
2023-03-16T22:01:00.926Z,3.7
2023-03-16T22:02:02.363Z,3.6
2023-03-16T22:04:00.932Z,3.6
2023-03-16T22:06:00.980Z,3.7
2023-03-16T22:08:00.925Z,3.6
2023-03-16T22:10:00.981Z,3.5
2023-03-16T22:12:00.998Z,3.7
2023-03-16T22:16:01.003Z,3.6
2023-03-16T22:18:00.978Z,3.5
2023-03-16T22:20:00.996Z,3.6
2023-03-16T22:26:00.920Z,3.5
2023-03-16T22:27:00.930Z,3.7
2023-03-16T22:31:00.977Z,3.6
2023-03-16T22:36:00.984Z,3.6
2023-03-16T22:38:00.929Z,3.9
2023-03-16T22:41:00.968Z,3.8
2023-03-16T22:42:00.985Z,3.9
2023-03-16T22:44:00.922Z,3.9
2023-03-16T22:45:01.153Z,3.8
2023-03-16T22:47:00.941Z,3.9
2023-03-16T22:48:00.943Z,4
2023-03-16T22:50:00.978Z,3.9
2023-03-16T22:52:00.935Z,3.9
2023-03-16T22:55:00.987Z,4
2023-03-16T22:56:01.152Z,3.9
2023-03-16T22:58:00.987Z,4
2023-03-16T23:00:01.143Z,3.9
2023-03-16T23:02:01.023Z,4
2023-03-16T23:05:01.008Z,4.1
2023-03-16T23:08:01.000Z,4.2
2023-03-16T23:09:00.974Z,4
2023-03-16T23:11:00.997Z,4.2
2023-03-16T23:13:00.936Z,4.1
2023-03-16T23:15:01.003Z,4
2023-03-16T23:16:01.027Z,4.2
2023-03-16T23:19:00.931Z,4.3
2023-03-16T23:20:01.055Z,4
2023-03-16T23:27:00.955Z,4.2
2023-03-16T23:29:00.967Z,4.1
2023-03-16T23:30:01.083Z,4
2023-03-16T23:32:00.936Z,4.1
2023-03-16T23:33:01.009Z,4
2023-03-16T23:36:01.034Z,4.1
2023-03-16T23:38:00.925Z,4.1
2023-03-16T23:41:01.037Z,3.9
2023-03-16T23:43:00.983Z,4.1
2023-03-16T23:44:01.013Z,4
2023-03-16T23:47:00.959Z,4
2023-03-16T23:48:00.993Z,3.8
2023-03-16T23:51:00.981Z,4.1
2023-03-16T23:53:00.931Z,4.1
2023-03-16T23:55:00.944Z,4.2
2023-03-16T23:56:00.981Z,4
2023-03-16T23:57:00.984Z,4.1
